createdAt,value
2023-05-15T00:01:51.383Z,92.59
2023-05-15T00:04:19.814Z,93.08
2023-05-15T00:06:48.438Z,93.02
2023-05-15T00:09:16.544Z,93.38
2023-05-15T00:11:44.898Z,94.02
2023-05-15T00:14:13.821Z,94.19
2023-05-15T00:16:42.081Z,94.27
2023-05-15T00:19:10.582Z,94.48
2023-05-15T00:21:39.001Z,94.45
2023-05-15T00:24:07.225Z,94.00
2023-05-15T00:26:36.836Z,93.90
2023-05-15T00:29:03.977Z,94.29
2023-05-15T00:31:33.601Z,94.98
2023-05-15T00:34:00.824Z,96.10
2023-05-15T00:36:29.260Z,96.61
2023-05-15T00:38:57.768Z,96.62
2023-05-15T00:41:28.856Z,96.53
2023-05-15T00:43:58.111Z,96.44
2023-05-15T00:46:30.823Z,96.73
2023-05-15T00:49:03.213Z,96.46
2023-05-15T00:51:33.339Z,96.16
2023-05-15T00:54:04.121Z,95.60
2023-05-15T00:56:35.596Z,95.64
2023-05-15T00:59:07.686Z,96.27
2023-05-15T01:01:37.790Z,96.24
2023-05-15T01:04:07.701Z,96.37
2023-05-15T01:06:38.060Z,96.29
2023-05-15T01:09:10.060Z,96.59
2023-05-15T01:11:42.542Z,96.64
2023-05-15T01:14:12.351Z,96.93
2023-05-15T01:16:42.114Z,96.70
2023-05-15T01:19:12.456Z,96.70
2023-05-15T01:21:57.048Z,97.33
2023-05-15T01:25:43.339Z,97.42
2023-05-15T01:28:22.360Z,98.27
2023-05-15T01:30:56.497Z,98.47
2023-05-15T01:33:33.276Z,98.39
2023-05-15T01:36:24.782Z,98.55
2023-05-15T01:39:01.048Z,98.83
2023-05-15T01:41:54.648Z,99.35
2023-05-15T01:44:54.751Z,99.66
2023-05-15T01:47:40.649Z,100.00
2023-05-15T01:50:14.732Z,99.98
2023-05-15T01:53:00.866Z,99.99
2023-05-15T01:55:31.438Z,99.89
2023-05-15T01:58:02.885Z,99.91
2023-05-15T02:00:34.227Z,100.00
2023-05-15T02:03:02.217Z,100.00
2023-05-15T02:05:31.158Z,100.00
2023-05-15T02:08:04.833Z,100.00
2023-05-15T02:10:36.564Z,100.00
2023-05-15T02:13:09.432Z,100.00
2023-05-15T02:15:39.769Z,100.00
2023-05-15T02:18:09.556Z,100.00
2023-05-15T02:20:39.457Z,100.00
2023-05-15T02:23:09.276Z,100.00
2023-05-15T02:26:01.246Z,100.00
2023-05-15T02:28:55.188Z,100.00
2023-05-15T02:31:51.900Z,100.00
2023-05-15T02:35:13.922Z,100.00
2023-05-15T02:37:49.732Z,100.00
2023-05-15T02:40:24.561Z,100.00
2023-05-15T02:42:57.003Z,100.00
2023-05-15T02:45:28.035Z,100.00
2023-05-15T02:48:00.240Z,100.00
2023-05-15T02:50:31.000Z,100.00
2023-05-15T02:53:09.907Z,100.00
2023-05-15T02:55:39.892Z,100.00
2023-05-15T02:58:10.278Z,100.00
2023-05-15T03:00:40.503Z,100.00
2023-05-15T03:03:10.331Z,100.00
2023-05-15T03:05:40.516Z,100.00
2023-05-15T03:08:10.446Z,100.00
2023-05-15T03:10:40.628Z,100.00
2023-05-15T03:13:10.950Z,100.00
2023-05-15T03:15:40.871Z,100.00
2023-05-15T03:18:11.034Z,100.00
2023-05-15T03:20:40.996Z,100.00
2023-05-15T03:23:11.038Z,100.00
2023-05-15T03:25:40.956Z,100.00
2023-05-15T03:28:11.651Z,100.00
2023-05-15T03:30:45.126Z,100.00
2023-05-15T03:33:15.084Z,100.00
2023-05-15T03:35:45.251Z,100.00
2023-05-15T03:38:15.524Z,100.00
2023-05-15T03:40:45.592Z,100.00
2023-05-15T03:43:16.067Z,100.00
2023-05-15T03:45:45.932Z,100.00
2023-05-15T03:48:15.893Z,100.00
2023-05-15T03:50:47.295Z,100.00
2023-05-15T03:53:16.822Z,100.00
2023-05-15T03:55:46.898Z,100.00
2023-05-15T03:58:16.757Z,100.00
2023-05-15T04:00:47.021Z,100.00
2023-05-15T04:03:15.386Z,100.00
2023-05-15T04:05:44.118Z,100.00
2023-05-15T04:08:12.629Z,100.00
2023-05-15T04:10:40.758Z,100.00
2023-05-15T04:13:09.188Z,100.00
2023-05-15T04:15:38.900Z,100.00
2023-05-15T04:18:06.461Z,100.00
2023-05-15T04:20:35.128Z,100.00
2023-05-15T04:23:05.847Z,100.00
2023-05-15T04:25:33.032Z,100.00
2023-05-15T04:28:01.802Z,100.00
2023-05-15T04:30:29.719Z,100.00
2023-05-15T04:32:58.717Z,100.00
2023-05-15T04:35:27.429Z,100.00
2023-05-15T04:37:55.916Z,100.00
2023-05-15T04:40:24.199Z,100.00
2023-05-15T04:42:52.726Z,100.00
2023-05-15T04:45:21.431Z,100.00
2023-05-15T04:47:49.907Z,100.00
2023-05-15T04:50:17.978Z,100.00
2023-05-15T04:52:46.869Z,100.00
2023-05-15T04:55:15.529Z,100.00
2023-05-15T04:57:43.761Z,100.00
2023-05-15T05:00:14.204Z,100.00
2023-05-15T05:02:44.184Z,100.00
2023-05-15T05:05:14.572Z,100.00
2023-05-15T05:07:46.325Z,100.00
2023-05-15T05:10:16.335Z,100.00
2023-05-15T05:12:46.289Z,100.00
2023-05-15T05:15:16.250Z,100.00
2023-05-15T05:17:46.590Z,100.00
2023-05-15T05:20:16.709Z,100.00
2023-05-15T05:22:46.826Z,100.00
2023-05-15T05:25:15.027Z,100.00
2023-05-15T05:27:43.411Z,100.00
2023-05-15T05:30:12.878Z,100.00
2023-05-15T05:32:40.303Z,100.00
2023-05-15T05:35:09.482Z,100.00
2023-05-15T05:37:39.592Z,100.00
2023-05-15T05:40:10.783Z,100.00
2023-05-15T05:42:37.945Z,100.00
2023-05-15T05:45:07.581Z,100.00
2023-05-15T05:47:35.002Z,100.00
2023-05-15T05:50:03.797Z,99.15
2023-05-15T05:52:31.878Z,96.05
2023-05-15T05:55:00.256Z,95.75
2023-05-15T05:57:29.087Z,93.45
2023-05-15T05:59:57.403Z,90.25
2023-05-15T06:02:26.531Z,88.50
2023-05-15T06:04:54.763Z,88.45
2023-05-15T06:07:23.584Z,89.36
2023-05-15T06:09:51.973Z,89.57
2023-05-15T06:12:22.239Z,90.35
2023-05-15T06:14:52.728Z,91.69
2023-05-15T06:17:22.834Z,89.99
2023-05-15T06:19:52.748Z,88.35
2023-05-15T06:22:23.498Z,88.34
2023-05-15T06:24:53.243Z,87.02
2023-05-15T06:27:26.524Z,85.10
2023-05-15T06:29:56.399Z,84.61
2023-05-15T06:32:25.032Z,85.16
2023-05-15T06:34:53.212Z,84.88
2023-05-15T06:37:21.850Z,85.23
2023-05-15T06:39:50.501Z,84.41
2023-05-15T06:42:18.617Z,84.15
2023-05-15T06:44:47.745Z,85.88
2023-05-15T06:47:16.048Z,85.79
2023-05-15T06:49:43.887Z,85.72
2023-05-15T06:52:12.304Z,86.29
2023-05-15T06:54:41.721Z,86.03
2023-05-15T06:57:09.461Z,84.65
2023-05-15T06:59:37.856Z,83.11
2023-05-15T07:02:06.083Z,82.18
2023-05-15T07:04:34.404Z,80.38
2023-05-15T07:07:02.973Z,78.78
2023-05-15T07:09:31.267Z,78.00
2023-05-15T07:11:59.560Z,79.06
2023-05-15T07:14:28.383Z,78.11
2023-05-15T07:16:56.695Z,76.66
2023-05-15T07:19:25.030Z,77.85
2023-05-15T07:21:53.454Z,74.60
2023-05-15T07:24:21.808Z,72.82
2023-05-15T07:26:58.318Z,72.08
2023-05-15T07:29:28.961Z,68.42
2023-05-15T07:31:58.910Z,67.36
2023-05-15T07:34:28.822Z,65.27
2023-05-15T07:36:58.884Z,65.32
2023-05-15T07:39:28.765Z,63.41
2023-05-15T07:41:58.610Z,62.64
2023-05-15T07:44:28.477Z,63.61
2023-05-15T07:46:59.460Z,61.83
2023-05-15T07:49:29.752Z,63.39
2023-05-15T07:51:59.562Z,61.78
2023-05-15T07:54:31.836Z,62.79
2023-05-15T07:57:02.486Z,61.43
2023-05-15T07:59:32.450Z,62.17
2023-05-15T08:02:03.108Z,62.26
2023-05-15T08:04:33.493Z,60.94
2023-05-15T08:07:03.846Z,60.31
2023-05-15T08:09:34.419Z,58.89
2023-05-15T08:12:22.227Z,59.43
2023-05-15T08:14:54.522Z,59.62
2023-05-15T08:17:25.853Z,59.73
2023-05-15T08:19:56.377Z,59.90
2023-05-15T08:22:26.477Z,59.50
2023-05-15T08:24:56.474Z,60.28
2023-05-15T08:27:27.133Z,59.24
2023-05-15T08:29:56.929Z,59.00
2023-05-15T08:32:27.526Z,58.53
2023-05-15T08:34:58.186Z,60.48
2023-05-15T08:37:28.818Z,57.70
2023-05-15T08:39:58.668Z,57.40
2023-05-15T08:42:48.143Z,56.25
2023-05-15T08:45:20.023Z,56.35
2023-05-15T08:47:49.570Z,55.98
2023-05-15T08:50:19.083Z,52.53
2023-05-15T08:52:47.891Z,52.32
2023-05-15T08:55:16.326Z,52.76
2023-05-15T08:57:45.175Z,52.56
2023-05-15T09:00:15.818Z,50.48
2023-05-15T09:02:43.999Z,50.91
2023-05-15T09:05:12.723Z,50.58
2023-05-15T09:07:44.945Z,51.10
2023-05-15T09:10:16.293Z,50.34
2023-05-15T09:12:46.298Z,51.03
2023-05-15T09:15:22.213Z,51.35
2023-05-15T09:17:53.045Z,52.37
2023-05-15T09:20:29.862Z,52.25
2023-05-15T09:23:03.750Z,52.77
2023-05-15T09:25:44.516Z,53.33
2023-05-15T09:28:33.387Z,54.01
2023-05-15T09:31:05.752Z,56.32
2023-05-15T09:33:38.800Z,55.89
2023-05-15T09:36:09.058Z,54.95
2023-05-15T09:38:43.937Z,55.88
2023-05-15T09:41:11.842Z,55.12
2023-05-15T09:43:41.723Z,54.42
2023-05-15T09:46:14.665Z,55.51
2023-05-15T09:48:45.141Z,58.30
2023-05-15T09:51:20.726Z,58.54
2023-05-15T09:53:54.300Z,62.72
2023-05-15T09:56:25.067Z,64.56
2023-05-15T09:58:56.115Z,64.59
2023-05-15T10:01:27.524Z,66.30
2023-05-15T10:04:01.790Z,65.31
2023-05-15T10:06:40.646Z,69.19
2023-05-15T10:09:11.585Z,66.39
2023-05-15T10:11:43.432Z,67.16
2023-05-15T10:14:15.639Z,64.37
2023-05-15T10:16:45.315Z,64.95
2023-05-15T10:19:14.922Z,55.43
2023-05-15T10:21:45.700Z,53.80
2023-05-15T10:24:19.111Z,56.13
2023-05-15T10:26:49.122Z,54.02
2023-05-15T10:29:21.229Z,54.12
2023-05-15T10:31:51.972Z,52.03
2023-05-15T10:34:21.104Z,50.80
2023-05-15T10:36:51.849Z,50.41
2023-05-15T10:39:22.299Z,49.54
2023-05-15T10:41:53.904Z,48.50
2023-05-15T10:44:23.675Z,48.63
2023-05-15T10:46:55.305Z,47.60
2023-05-15T10:49:25.932Z,48.18
2023-05-15T10:51:56.179Z,47.64
2023-05-15T10:54:23.669Z,47.14
2023-05-15T10:56:56.316Z,47.14
2023-05-15T10:59:32.492Z,49.09
2023-05-15T11:02:23.397Z,49.06
2023-05-15T11:05:03.657Z,50.84
2023-05-15T11:07:31.935Z,50.71
2023-05-15T11:10:00.469Z,51.25
2023-05-15T11:12:57.652Z,51.09
2023-05-15T11:15:40.913Z,50.54
2023-05-15T11:18:11.644Z,51.52
2023-05-15T11:21:02.689Z,50.96
2023-05-15T11:23:41.695Z,50.27
2023-05-15T11:26:13.847Z,49.81
2023-05-15T11:28:45.003Z,51.09
2023-05-15T11:31:15.628Z,48.71
2023-05-15T11:33:52.413Z,48.55
2023-05-15T11:36:24.863Z,47.83
2023-05-15T11:38:54.002Z,47.93
2023-05-15T11:41:22.256Z,47.17
2023-05-15T11:43:50.850Z,47.31
2023-05-15T11:46:18.336Z,46.86
2023-05-15T11:48:50.534Z,46.92
2023-05-15T11:51:25.057Z,46.87
2023-05-15T11:53:58.187Z,45.57
2023-05-15T11:56:28.664Z,45.10
2023-05-15T11:59:02.312Z,43.99
2023-05-15T12:01:44.134Z,43.26
2023-05-15T12:04:16.335Z,42.36
2023-05-15T12:06:49.553Z,42.95
2023-05-15T12:09:21.736Z,43.79
2023-05-15T12:11:56.011Z,44.65
2023-05-15T12:14:30.515Z,42.17
2023-05-15T12:17:04.699Z,43.08
2023-05-15T12:19:38.095Z,45.27
2023-05-15T12:22:08.450Z,42.90
2023-05-15T12:24:39.799Z,42.76
2023-05-15T12:27:09.876Z,42.02
2023-05-15T12:29:41.062Z,42.08
2023-05-15T12:32:11.438Z,41.08
2023-05-15T12:34:41.973Z,41.28
2023-05-15T12:37:15.097Z,42.05
2023-05-15T12:39:53.506Z,42.66
2023-05-15T12:42:24.055Z,40.98
2023-05-15T12:44:56.551Z,40.63
2023-05-15T12:47:28.268Z,40.16
2023-05-15T12:49:58.609Z,41.90
2023-05-15T12:52:29.474Z,40.35
2023-05-15T12:55:02.136Z,40.02
2023-05-15T12:57:31.062Z,41.55
2023-05-15T13:00:01.079Z,42.15
2023-05-15T13:02:31.284Z,40.97
2023-05-15T13:05:04.028Z,41.25
2023-05-15T13:07:34.026Z,41.13
2023-05-15T13:10:08.533Z,40.45
2023-05-15T13:12:43.652Z,42.79
2023-05-15T13:15:30.975Z,39.82
2023-05-15T13:18:03.396Z,40.18
2023-05-15T13:20:36.029Z,39.83
2023-05-15T13:23:04.310Z,40.73
2023-05-15T13:25:32.458Z,41.17
2023-05-15T13:28:06.112Z,41.93
2023-05-15T13:30:35.980Z,41.98
2023-05-15T13:33:04.720Z,38.29
2023-05-15T13:35:33.420Z,37.77
2023-05-15T13:38:02.423Z,37.82
2023-05-15T13:40:37.842Z,38.09
2023-05-15T13:43:07.799Z,39.58
2023-05-15T13:45:37.621Z,40.13
2023-05-15T13:48:07.633Z,38.85
2023-05-15T13:50:37.445Z,40.45
2023-05-15T13:55:47.116Z,39.08
2023-05-15T13:58:17.429Z,38.86
2023-05-15T14:00:48.941Z,40.51
2023-05-15T14:03:18.904Z,45.96
2023-05-15T14:05:48.770Z,49.13
2023-05-15T14:08:18.838Z,50.78
2023-05-15T14:10:48.556Z,53.27
2023-05-15T14:13:18.974Z,54.77
2023-05-15T14:15:48.747Z,54.82
2023-05-15T14:18:18.495Z,56.08
2023-05-15T14:20:48.310Z,58.26
2023-05-15T14:23:19.519Z,59.79
2023-05-15T14:25:49.335Z,60.83
2023-05-15T14:28:19.265Z,61.83
2023-05-15T14:30:49.067Z,62.04
2023-05-15T14:33:18.953Z,62.64
2023-05-15T14:35:48.809Z,63.31
2023-05-15T14:38:19.027Z,63.02
2023-05-15T14:40:49.260Z,63.26
2023-05-15T14:43:19.114Z,62.44
2023-05-15T14:45:49.005Z,62.55
2023-05-15T14:48:20.228Z,62.62
2023-05-15T14:50:51.179Z,60.59
2023-05-15T14:53:21.179Z,59.22
2023-05-15T14:55:51.054Z,57.92
2023-05-15T14:58:21.148Z,58.55
2023-05-15T15:00:49.569Z,60.61
2023-05-15T15:03:19.181Z,59.25
2023-05-15T15:05:46.657Z,58.20
2023-05-15T15:08:15.139Z,57.40
2023-05-15T15:10:43.778Z,57.89
2023-05-15T15:13:14.109Z,56.79
2023-05-15T15:15:44.080Z,56.20
2023-05-15T15:18:13.951Z,56.67
2023-05-15T15:20:44.419Z,57.53
2023-05-15T15:23:14.432Z,56.84
2023-05-15T15:25:44.164Z,57.83
2023-05-15T15:28:13.062Z,57.48
2023-05-15T15:30:42.877Z,56.90
2023-05-15T15:33:12.950Z,57.53
2023-05-15T15:35:42.647Z,57.26
2023-05-15T15:38:13.268Z,57.58
2023-05-15T15:40:40.942Z,57.33
2023-05-15T15:43:09.944Z,57.18
2023-05-15T15:45:38.025Z,56.47
2023-05-15T15:48:06.581Z,57.82
2023-05-15T15:50:36.495Z,55.84
2023-05-15T15:53:06.302Z,55.43
2023-05-15T15:55:36.258Z,53.51
2023-05-15T15:58:06.303Z,53.41
2023-05-15T16:00:37.597Z,54.92
2023-05-15T16:03:07.682Z,55.66
2023-05-15T16:05:38.019Z,56.95
2023-05-15T16:08:07.910Z,55.67
2023-05-15T16:10:37.686Z,56.85
2023-05-15T16:13:07.599Z,56.24
2023-05-15T16:15:37.380Z,56.20
2023-05-15T16:18:07.729Z,56.46
2023-05-15T16:20:38.200Z,57.05
2023-05-15T16:23:09.473Z,57.59
2023-05-15T16:25:39.201Z,56.78
2023-05-15T16:28:09.987Z,57.17
2023-05-15T16:30:48.850Z,56.95
2023-05-15T16:33:19.706Z,56.59
2023-05-15T16:35:48.417Z,57.55
2023-05-15T16:38:17.998Z,57.69
2023-05-15T16:40:46.271Z,58.10
2023-05-15T16:43:14.455Z,58.46
2023-05-15T16:45:42.926Z,58.96
2023-05-15T16:48:12.105Z,58.97
2023-05-15T16:50:41.392Z,59.83
2023-05-15T16:53:10.842Z,60.92
2023-05-15T16:55:38.698Z,60.97
2023-05-15T16:58:08.586Z,61.23
2023-05-15T17:00:36.364Z,61.91
2023-05-15T17:03:07.006Z,62.00
2023-05-15T17:05:34.860Z,62.83
2023-05-15T17:08:02.867Z,62.69
2023-05-15T17:10:32.526Z,63.05
2023-05-15T17:13:00.858Z,62.90
2023-05-15T17:15:30.652Z,63.37
2023-05-15T17:17:58.691Z,64.12
2023-05-15T17:20:28.962Z,65.15
2023-05-15T17:22:58.781Z,67.12
2023-05-15T17:25:28.557Z,70.17
2023-05-15T17:27:58.361Z,73.44
2023-05-15T17:30:28.257Z,75.61
2023-05-15T17:32:59.350Z,76.90
2023-05-15T17:35:32.064Z,77.59
2023-05-15T17:38:02.853Z,77.89
2023-05-15T17:40:32.967Z,78.78
2023-05-15T17:43:03.872Z,79.41
2023-05-15T17:45:33.893Z,79.88
2023-05-15T17:48:04.998Z,80.22
2023-05-15T17:50:38.098Z,80.30
2023-05-15T17:53:07.960Z,80.35
2023-05-15T17:55:37.933Z,80.62
2023-05-15T17:58:07.815Z,80.98
2023-05-15T18:00:37.626Z,81.47
2023-05-15T18:03:08.104Z,81.51
2023-05-15T18:05:38.099Z,81.86
2023-05-15T18:08:08.006Z,81.74
2023-05-15T18:10:38.261Z,82.40
2023-05-15T18:13:08.110Z,82.94
2023-05-15T18:15:38.275Z,82.99
2023-05-15T18:18:08.229Z,83.80
2023-05-15T18:20:38.127Z,83.86
2023-05-15T18:23:08.076Z,84.11
2023-05-15T18:25:37.944Z,84.87
2023-05-15T18:28:07.853Z,85.06
2023-05-15T18:30:37.697Z,84.37
2023-05-15T18:33:07.724Z,84.35
2023-05-15T18:35:38.108Z,84.41
2023-05-15T18:38:08.020Z,84.55
2023-05-15T18:40:37.909Z,85.05
2023-05-15T18:43:08.014Z,85.54
2023-05-15T18:45:38.112Z,85.71
2023-05-15T18:48:08.029Z,86.27
2023-05-15T18:50:39.665Z,87.33
2023-05-15T18:53:09.549Z,88.58
2023-05-15T18:55:39.435Z,89.55
2023-05-15T18:58:09.213Z,89.99
2023-05-15T19:00:39.499Z,89.88
2023-05-15T19:03:09.817Z,90.26
2023-05-15T19:05:39.794Z,90.86
2023-05-15T19:08:09.594Z,90.91
2023-05-15T19:10:39.826Z,91.69
2023-05-15T19:13:09.672Z,92.47
2023-05-15T19:15:39.431Z,92.93
2023-05-15T19:18:09.245Z,93.27
2023-05-15T19:20:39.435Z,93.55
2023-05-15T19:23:09.888Z,93.83
2023-05-15T19:25:39.843Z,93.96
2023-05-15T19:28:08.623Z,94.22
2023-05-15T19:30:37.004Z,94.55
2023-05-15T19:33:05.129Z,95.21
2023-05-15T19:35:35.979Z,95.85
2023-05-15T19:38:05.587Z,96.27
2023-05-15T19:40:35.960Z,96.89
2023-05-15T19:43:05.940Z,97.73
2023-05-15T19:45:35.772Z,98.59
2023-05-15T19:48:06.196Z,99.67
2023-05-15T19:50:39.826Z,99.92
2023-05-15T19:53:11.964Z,99.79
2023-05-15T19:55:42.315Z,100.00
2023-05-15T19:58:12.120Z,100.00
2023-05-15T20:00:42.440Z,100.00
2023-05-15T20:03:12.472Z,100.00
2023-05-15T20:05:42.447Z,100.00
2023-05-15T20:08:14.097Z,100.00
2023-05-15T20:10:44.633Z,100.00
2023-05-15T20:13:14.441Z,100.00
2023-05-15T20:15:44.614Z,100.00
2023-05-15T20:18:17.410Z,100.00
2023-05-15T20:20:47.452Z,100.00
2023-05-15T20:23:17.257Z,100.00
2023-05-15T20:25:49.055Z,100.00
2023-05-15T20:28:18.972Z,100.00
2023-05-15T20:30:48.733Z,100.00
2023-05-15T20:33:19.340Z,100.00
2023-05-15T20:35:51.481Z,100.00
2023-05-15T20:38:25.458Z,100.00
2023-05-15T20:40:56.641Z,100.00
2023-05-15T20:43:26.663Z,100.00
2023-05-15T20:45:57.004Z,100.00
2023-05-15T20:48:26.844Z,100.00
2023-05-15T20:50:56.749Z,100.00
2023-05-15T20:53:28.812Z,100.00
2023-05-15T20:55:59.957Z,100.00
2023-05-15T20:58:29.904Z,100.00
2023-05-15T21:01:01.151Z,100.00
2023-05-15T21:03:31.503Z,100.00
2023-05-15T21:06:02.273Z,100.00
2023-05-15T21:08:32.118Z,100.00
2023-05-15T21:11:02.008Z,100.00
2023-05-15T21:13:30.461Z,100.00
2023-05-15T21:16:00.255Z,100.00
2023-05-15T21:18:30.134Z,100.00
2023-05-15T21:20:58.526Z,100.00
2023-05-15T21:23:27.116Z,100.00
2023-05-15T21:25:55.554Z,100.00
2023-05-15T21:28:23.840Z,100.00
2023-05-15T21:30:52.653Z,100.00
2023-05-15T21:33:20.974Z,100.00
2023-05-15T21:35:49.474Z,100.00
2023-05-15T21:38:19.349Z,100.00
2023-05-15T21:40:49.155Z,100.00
2023-05-15T21:43:17.905Z,100.00
2023-05-15T21:45:46.085Z,100.00
2023-05-15T21:48:15.247Z,100.00
2023-05-15T21:50:42.808Z,100.00
2023-05-15T21:53:12.675Z,100.00
2023-05-15T21:55:42.747Z,100.00
2023-05-15T21:58:09.904Z,100.00
2023-05-15T22:00:40.360Z,100.00
2023-05-15T22:03:10.389Z,100.00
2023-05-15T22:05:40.390Z,100.00
2023-05-15T22:08:08.871Z,100.00
2023-05-15T22:10:37.436Z,99.99
2023-05-15T22:13:06.110Z,99.94
2023-05-15T22:15:35.120Z,99.90
2023-05-15T22:18:05.455Z,99.82
2023-05-15T22:20:34.862Z,99.56
2023-05-15T22:23:02.949Z,99.10
2023-05-15T22:25:32.944Z,99.16
2023-05-15T22:28:03.358Z,98.88
2023-05-15T22:30:33.338Z,99.19
2023-05-15T22:33:03.457Z,99.06
2023-05-15T22:35:33.581Z,98.78
2023-05-15T22:38:04.557Z,98.75
2023-05-15T22:40:34.439Z,98.56
2023-05-15T22:43:05.121Z,98.60
2023-05-15T22:45:34.618Z,98.21
2023-05-15T22:48:05.122Z,98.60
2023-05-15T22:50:36.155Z,98.43
2023-05-15T22:53:06.057Z,98.62
2023-05-15T22:55:36.084Z,98.63
2023-05-15T22:58:05.980Z,99.18
2023-05-15T23:00:35.905Z,99.72
2023-05-15T23:03:05.994Z,99.78
2023-05-15T23:05:36.204Z,100.00
2023-05-15T23:08:06.140Z,100.00
2023-05-15T23:10:36.032Z,100.00
2023-05-15T23:13:06.176Z,100.00
2023-05-15T23:15:36.191Z,100.00
2023-05-15T23:18:06.679Z,100.00
2023-05-15T23:20:36.507Z,100.00
2023-05-15T23:23:06.992Z,100.00
2023-05-15T23:25:37.026Z,100.00
2023-05-15T23:28:07.022Z,100.00
2023-05-15T23:30:35.494Z,100.00
2023-05-15T23:33:03.929Z,100.00
2023-05-15T23:35:33.211Z,100.00
2023-05-15T23:38:00.713Z,100.00
2023-05-15T23:40:29.700Z,100.00
2023-05-15T23:42:58.205Z,100.00
2023-05-15T23:45:26.534Z,100.00
2023-05-15T23:47:54.697Z,100.00
2023-05-15T23:50:23.197Z,100.00
2023-05-15T23:52:51.731Z,100.00
2023-05-15T23:55:20.070Z,100.00
2023-05-15T23:57:48.476Z,100.00
